Padul, Spain
Current Conditions -  °F | °C
As of 8:30 AM on Thursday 18 Dec 2014 (Local Time) from LEGR Reporting Station
Few Clouds Few Clouds  
Wind Chill: 32°   Ceiling: Unl
Heat Index: 32°   Visibility: 6mi
Dew Point: 32°   Wind: 0mph
Humidity: 100%   Direction: NA
Pressure: 30.33"   Gusts: NA
Location:  37.02°N, 3.63°W
Report Text: LEGR 180730Z 00000KT 9999 FEW002 00/00 Q1027
Loading
Personal Weather Stations






























Interactive Weather Map New forecast layout! Learn more

10-Day Weather Forecast

Advertisements
Track Severe Weather on mobile